Aérodrome :
LOGIN :

S'inscrire | Disclaimer

   EN    FR    IT 

 










Légende :    VFR   VFR Marginal   IFR   IFR Intensif   IFR Très Intensif
Visi : 
Plafond : 
>= 8 km
>= 3000ft
5 à 8 km
1000 à 3000 ft
1500m à 5 km
500 à 1000 ft
800 à 1500m
200 à 500 ft
< 800m
< 200 ft
Symboles :   Orages  Brouillard  Fortes neiges  Fortes précipitations  Vent > 20 kt
SIGMETs :   Divers  Orages  Givrage  Turbulence  Onde Orograph.  Cendres Volcan.






- Altitude de l'aérodrome : 461 ft
- Code IATA : WIE


ETOU - Wiesbaden Army

DERNIER METAR :
  • 191256Z AUTO 08007KT 9999 OVC045 18/10 A2996 RMK AO2 SLP146 T01790098 $

METARs EXPIRÉS :
  • 191156Z AUTO 06005KT 9999 OVC038 18/10 A2997 RMK AO2 SLP150 T01770096 10182 20133 56005 $
  • 191101Z AUTO 05006KT 9999 BKN030 OVC038 18/10 A2997 RMK AO2 SLP150 $
  • 191056Z AUTO 06008KT 9999 BKN029 BKN037 18/10 A2997 RMK AO2 SLP150 T01800096 $

TAF TAF ETOU
Valide du 19 à 10h jusqu'au 20 à 16h UTC


191015Z 1910/2016 06009KT 9999 SCT021 BKN029 BKN040 QNH2995INS TX20/1914Z TN12/2005Z LAST NO AMDS AFT 1910 NEXT 2004



MET'MAP, la Météo Aéronautique d'un coup d'oeil ! - Copyright ORBIFLY Décembre 2007 - Disclaimer

ORBIFLY MET'MAP TEAM :

Programmation & Développement : Alexandra Zaïnal
Sur une idée originale de : Baudouin d'Aumeries
Assistance à la programmation : Marc-Olivier Méhu
Soutien technique & logistique : Manuel Goepfert

Contact : metmap@orbifly.com




SOURCES & CREDITS :

   NOAA